Marmet, West Virginia
Current Conditions -  °F | °C
As of 5:54 PM on Saturday 20 Dec 2014 (Local Time) from KCRW Reporting Station
Overcast Overcast  
Wind Chill: 34°   Ceiling: 3300
Heat Index: 34°   Visibility: 10mi
Dew Point: 24°   Wind: 3mph
Humidity: 67%   Direction: 320°NW
Pressure: 30.24"   Gusts: NA
Location:  38.2341°N, 81.5737°W
Report Text: KCRW 202254Z 32003KT 10SM BKN033 OVC060 01/M04 A3024 RMK AO2 SLP250 T00111044
Loading
Personal Weather Stations






























Interactive Weather Map New forecast layout! Learn more

10-Day Weather Forecast

Advertisements
Track Severe Weather on mobile